sensor_id;sensor_type;location;lat;lon;timestamp;P1;durP1;ratioP1;P2;durP2;ratioP2
450;SDS011;212;48.748;9.174;2022-07-29T00:01:15;8.73;;;8.27;;
450;SDS011;212;48.748;9.174;2022-07-29T00:03:42;8.87;;;8.37;;
450;SDS011;212;48.748;9.174;2022-07-29T00:06:09;9.10;;;8.60;;
450;SDS011;212;48.748;9.174;2022-07-29T00:08:35;9.50;;;9.00;;
450;SDS011;212;48.748;9.174;2022-07-29T00:11:02;8.93;;;8.43;;
450;SDS011;212;48.748;9.174;2022-07-29T00:13:29;9.40;;;8.90;;
450;SDS011;212;48.748;9.174;2022-07-29T00:15:57;9.47;;;8.97;;
450;SDS011;212;48.748;9.174;2022-07-29T00:18:24;8.10;;;7.70;;
450;SDS011;212;48.748;9.174;2022-07-29T00:20:50;11.03;;;9.50;;
450;SDS011;212;48.748;9.174;2022-07-29T00:23:17;10.00;;;9.50;;
450;SDS011;212;48.748;9.174;2022-07-29T00:25:44;9.77;;;9.27;;
450;SDS011;212;48.748;9.174;2022-07-29T00:28:10;10.07;;;9.57;;
450;SDS011;212;48.748;9.174;2022-07-29T00:30:37;8.80;;;8.30;;
450;SDS011;212;48.748;9.174;2022-07-29T00:33:06;9.90;;;9.40;;
450;SDS011;212;48.748;9.174;2022-07-29T00:35:32;9.23;;;8.73;;
450;SDS011;212;48.748;9.174;2022-07-29T00:38:11;10.00;;;9.50;;
450;SDS011;212;48.748;9.174;2022-07-29T00:40:38;10.70;;;10.10;;
450;SDS011;212;48.748;9.174;2022-07-29T00:43:05;10.27;;;9.77;;
450;SDS011;212;48.748;9.174;2022-07-29T00:45:32;9.43;;;8.93;;
450;SDS011;212;48.748;9.174;2022-07-29T00:47:59;8.93;;;8.43;;
450;SDS011;212;48.748;9.174;2022-07-29T00:50:27;10.07;;;9.57;;
450;SDS011;212;48.748;9.174;2022-07-29T00:52:54;11.07;;;10.47;;
450;SDS011;212;48.748;9.174;2022-07-29T00:55:20;9.20;;;8.70;;
450;SDS011;212;48.748;9.174;2022-07-29T00:57:47;10.50;;;9.97;;
450;SDS011;212;48.748;9.174;2022-07-29T01:00:15;9.80;;;9.10;;
450;SDS011;212;48.748;9.174;2022-07-29T01:02:43;10.43;;;9.90;;
450;SDS011;212;48.748;9.174;2022-07-29T01:05:12;10.10;;;9.60;;
450;SDS011;212;48.748;9.174;2022-07-29T01:07:40;10.57;;;10.00;;
450;SDS011;212;48.748;9.174;2022-07-29T01:10:09;9.17;;;8.67;;
450;SDS011;212;48.748;9.174;2022-07-29T01:12:38;8.27;;;7.87;;
450;SDS011;212;48.748;9.174;2022-07-29T01:15:06;9.67;;;9.17;;
450;SDS011;212;48.748;9.174;2022-07-29T01:17:36;8.87;;;8.37;;
450;SDS011;212;48.748;9.174;2022-07-29T01:20:07;9.00;;;8.50;;
450;SDS011;212;48.748;9.174;2022-07-29T01:22:49;9.20;;;8.70;;
450;SDS011;212;48.748;9.174;2022-07-29T01:28:49;8.80;;;8.30;;
450;SDS011;212;48.748;9.174;2022-07-29T01:31:24;9.03;;;8.53;;
450;SDS011;212;48.748;9.174;2022-07-29T01:33:57;7.63;;;7.23;;
450;SDS011;212;48.748;9.174;2022-07-29T01:36:30;8.17;;;7.77;;
450;SDS011;212;48.748;9.174;2022-07-29T01:39:02;8.00;;;7.60;;
450;SDS011;212;48.748;9.174;2022-07-29T01:41:32;8.17;;;7.77;;
450;SDS011;212;48.748;9.174;2022-07-29T01:44:06;7.47;;;7.07;;
450;SDS011;212;48.748;9.174;2022-07-29T01:46:39;7.40;;;7.00;;
450;SDS011;212;48.748;9.174;2022-07-29T01:49:25;9.00;;;8.50;;
450;SDS011;212;48.748;9.174;2022-07-29T01:51:57;8.43;;;7.97;;
450;SDS011;212;48.748;9.174;2022-07-29T01:54:28;7.33;;;6.93;;
450;SDS011;212;48.748;9.174;2022-07-29T01:57:00;8.60;;;8.10;;
450;SDS011;212;48.748;9.174;2022-07-29T01:59:30;8.43;;;7.97;;
450;SDS011;212;48.748;9.174;2022-07-29T02:02:00;8.00;;;7.60;;
450;SDS011;212;48.748;9.174;2022-07-29T02:04:28;7.83;;;7.43;;
450;SDS011;212;48.748;9.174;2022-07-29T02:06:57;7.23;;;6.83;;
450;SDS011;212;48.748;9.174;2022-07-29T02:09:27;7.73;;;7.33;;
450;SDS011;212;48.748;9.174;2022-07-29T02:11:55;7.90;;;7.50;;
450;SDS011;212;48.748;9.174;2022-07-29T02:14:23;7.30;;;6.90;;
450;SDS011;212;48.748;9.174;2022-07-29T02:16:54;7.53;;;7.13;;
450;SDS011;212;48.748;9.174;2022-07-29T02:19:24;8.03;;;7.63;;
450;SDS011;212;48.748;9.174;2022-07-29T02:21:53;7.03;;;6.63;;
450;SDS011;212;48.748;9.174;2022-07-29T02:24:22;8.20;;;7.77;;
450;SDS011;212;48.748;9.174;2022-07-29T02:26:51;5.50;;;5.20;;
450;SDS011;212;48.748;9.174;2022-07-29T02:29:21;7.33;;;6.93;;
450;SDS011;212;48.748;9.174;2022-07-29T02:31:50;8.10;;;7.70;;
450;SDS011;212;48.748;9.174;2022-07-29T02:34:20;7.40;;;7.00;;
450;SDS011;212;48.748;9.174;2022-07-29T02:36:47;8.43;;;7.60;;
450;SDS011;212;48.748;9.174;2022-07-29T02:39:15;7.77;;;7.37;;
450;SDS011;212;48.748;9.174;2022-07-29T02:41:44;7.40;;;7.00;;
450;SDS011;212;48.748;9.174;2022-07-29T02:44:15;8.30;;;7.90;;
450;SDS011;212;48.748;9.174;2022-07-29T02:46:45;7.80;;;7.40;;
450;SDS011;212;48.748;9.174;2022-07-29T02:49:16;8.33;;;7.90;;
450;SDS011;212;48.748;9.174;2022-07-29T02:51:51;8.73;;;8.23;;
450;SDS011;212;48.748;9.174;2022-07-29T02:54:27;6.93;;;6.53;;
450;SDS011;212;48.748;9.174;2022-07-29T02:56:58;8.70;;;8.20;;
450;SDS011;212;48.748;9.174;2022-07-29T02:59:28;7.53;;;7.13;;
450;SDS011;212;48.748;9.174;2022-07-29T03:02:00;8.10;;;7.70;;
450;SDS011;212;48.748;9.174;2022-07-29T03:04:31;7.00;;;6.60;;
450;SDS011;212;48.748;9.174;2022-07-29T03:07:00;7.67;;;7.13;;
450;SDS011;212;48.748;9.174;2022-07-29T03:09:27;7.67;;;7.27;;
450;SDS011;212;48.748;9.174;2022-07-29T03:11:56;8.23;;;7.83;;
450;SDS011;212;48.748;9.174;2022-07-29T03:14:23;7.47;;;7.07;;
450;SDS011;212;48.748;9.174;2022-07-29T03:16:50;7.63;;;7.23;;
450;SDS011;212;48.748;9.174;2022-07-29T03:19:17;7.83;;;7.43;;
450;SDS011;212;48.748;9.174;2022-07-29T03:21:46;7.80;;;7.40;;
450;SDS011;212;48.748;9.174;2022-07-29T03:24:26;7.70;;;7.30;;
450;SDS011;212;48.748;9.174;2022-07-29T03:26:54;6.77;;;6.37;;
450;SDS011;212;48.748;9.174;2022-07-29T03:29:22;7.50;;;7.10;;
450;SDS011;212;48.748;9.174;2022-07-29T03:31:48;7.70;;;7.30;;
450;SDS011;212;48.748;9.174;2022-07-29T03:34:15;7.57;;;7.17;;
450;SDS011;212;48.748;9.174;2022-07-29T03:36:42;7.93;;;7.53;;
450;SDS011;212;48.748;9.174;2022-07-29T03:39:10;8.30;;;7.90;;
450;SDS011;212;48.748;9.174;2022-07-29T03:41:39;6.83;;;6.43;;
450;SDS011;212;48.748;9.174;2022-07-29T03:44:08;6.80;;;6.40;;
450;SDS011;212;48.748;9.174;2022-07-29T03:46:35;8.20;;;7.80;;
450;SDS011;212;48.748;9.174;2022-07-29T03:49:04;7.00;;;6.60;;
450;SDS011;212;48.748;9.174;2022-07-29T03:51:33;7.27;;;6.87;;
450;SDS011;212;48.748;9.174;2022-07-29T03:54:01;6.80;;;6.40;;
450;SDS011;212;48.748;9.174;2022-07-29T03:56:29;6.67;;;6.27;;
450;SDS011;212;48.748;9.174;2022-07-29T03:58:58;7.63;;;7.23;;
450;SDS011;212;48.748;9.174;2022-07-29T04:01:26;6.40;;;6.00;;
450;SDS011;212;48.748;9.174;2022-07-29T04:03:54;7.03;;;6.63;;
450;SDS011;212;48.748;9.174;2022-07-29T04:06:21;6.93;;;6.53;;
450;SDS011;212;48.748;9.174;2022-07-29T04:08:48;7.10;;;6.70;;
450;SDS011;212;48.748;9.174;2022-07-29T04:11:14;6.50;;;6.10;;
450;SDS011;212;48.748;9.174;2022-07-29T04:13:42;7.00;;;6.33;;
450;SDS011;212;48.748;9.174;2022-07-29T04:16:09;6.20;;;5.90;;
450;SDS011;212;48.748;9.174;2022-07-29T04:18:36;6.60;;;6.20;;
450;SDS011;212;48.748;9.174;2022-07-29T04:21:02;5.57;;;5.27;;
450;SDS011;212;48.748;9.174;2022-07-29T04:23:29;5.73;;;5.30;;
450;SDS011;212;48.748;9.174;2022-07-29T04:25:58;5.30;;;5.00;;
450;SDS011;212;48.748;9.174;2022-07-29T04:28:26;5.63;;;5.33;;
450;SDS011;212;48.748;9.174;2022-07-29T04:30:53;6.00;;;5.70;;
450;SDS011;212;48.748;9.174;2022-07-29T04:33:20;5.70;;;5.40;;
450;SDS011;212;48.748;9.174;2022-07-29T04:35:47;5.70;;;5.40;;
450;SDS011;212;48.748;9.174;2022-07-29T04:38:13;4.93;;;4.63;;
450;SDS011;212;48.748;9.174;2022-07-29T04:40:40;5.80;;;5.50;;
450;SDS011;212;48.748;9.174;2022-07-29T04:43:07;5.83;;;5.53;;
450;SDS011;212;48.748;9.174;2022-07-29T04:45:33;4.67;;;4.37;;
450;SDS011;212;48.748;9.174;2022-07-29T04:48:01;6.90;;;5.03;;
450;SDS011;212;48.748;9.174;2022-07-29T04:50:29;5.67;;;5.37;;
450;SDS011;212;48.748;9.174;2022-07-29T04:52:55;5.97;;;5.67;;
450;SDS011;212;48.748;9.174;2022-07-29T04:55:22;5.90;;;5.60;;
450;SDS011;212;48.748;9.174;2022-07-29T04:57:49;4.87;;;4.57;;
450;SDS011;212;48.748;9.174;2022-07-29T05:00:16;5.10;;;4.80;;
450;SDS011;212;48.748;9.174;2022-07-29T05:02:43;7.70;;;4.60;;
450;SDS011;212;48.748;9.174;2022-07-29T05:05:11;5.30;;;4.83;;
450;SDS011;212;48.748;9.174;2022-07-29T05:07:38;5.23;;;4.93;;
450;SDS011;212;48.748;9.174;2022-07-29T05:10:05;4.40;;;4.10;;
450;SDS011;212;48.748;9.174;2022-07-29T05:12:32;4.80;;;4.50;;
450;SDS011;212;48.748;9.174;2022-07-29T05:14:58;5.00;;;4.70;;
450;SDS011;212;48.748;9.174;2022-07-29T05:17:25;4.50;;;4.20;;
450;SDS011;212;48.748;9.174;2022-07-29T05:19:52;3.93;;;3.73;;
450;SDS011;212;48.748;9.174;2022-07-29T05:22:20;4.30;;;4.00;;
450;SDS011;212;48.748;9.174;2022-07-29T05:24:47;3.80;;;3.60;;
450;SDS011;212;48.748;9.174;2022-07-29T05:27:14;3.50;;;3.30;;
450;SDS011;212;48.748;9.174;2022-07-29T05:29:40;3.60;;;3.40;;
450;SDS011;212;48.748;9.174;2022-07-29T05:32:07;3.73;;;3.53;;
450;SDS011;212;48.748;9.174;2022-07-29T05:34:34;3.67;;;3.47;;
450;SDS011;212;48.748;9.174;2022-07-29T05:37:01;3.87;;;3.67;;
450;SDS011;212;48.748;9.174;2022-07-29T05:39:29;4.03;;;3.83;;
450;SDS011;212;48.748;9.174;2022-07-29T05:41:55;3.57;;;3.37;;
450;SDS011;212;48.748;9.174;2022-07-29T05:44:22;3.13;;;2.93;;
450;SDS011;212;48.748;9.174;2022-07-29T05:46:49;3.63;;;3.43;;
450;SDS011;212;48.748;9.174;2022-07-29T05:49:16;3.70;;;3.50;;
450;SDS011;212;48.748;9.174;2022-07-29T05:51:42;3.53;;;3.33;;
450;SDS011;212;48.748;9.174;2022-07-29T05:54:10;2.90;;;2.70;;
450;SDS011;212;48.748;9.174;2022-07-29T05:56:38;3.00;;;2.80;;
450;SDS011;212;48.748;9.174;2022-07-29T05:59:04;3.67;;;3.47;;
450;SDS011;212;48.748;9.174;2022-07-29T06:01:31;3.70;;;3.50;;
450;SDS011;212;48.748;9.174;2022-07-29T06:03:58;4.30;;;3.83;;
450;SDS011;212;48.748;9.174;2022-07-29T06:06:24;3.80;;;3.60;;
450;SDS011;212;48.748;9.174;2022-07-29T06:08:51;3.30;;;3.10;;
450;SDS011;212;48.748;9.174;2022-07-29T06:11:18;3.00;;;2.80;;
450;SDS011;212;48.748;9.174;2022-07-29T06:13:46;4.93;;;4.20;;
450;SDS011;212;48.748;9.174;2022-07-29T06:16:12;4.03;;;3.83;;
450;SDS011;212;48.748;9.174;2022-07-29T06:18:39;4.03;;;3.83;;
450;SDS011;212;48.748;9.174;2022-07-29T06:21:07;3.10;;;2.90;;
450;SDS011;212;48.748;9.174;2022-07-29T06:23:35;3.63;;;3.43;;
450;SDS011;212;48.748;9.174;2022-07-29T06:26:03;4.30;;;4.00;;
450;SDS011;212;48.748;9.174;2022-07-29T06:28:29;4.07;;;3.87;;
450;SDS011;212;48.748;9.174;2022-07-29T06:30:58;4.47;;;4.13;;
450;SDS011;212;48.748;9.174;2022-07-29T06:33:24;4.70;;;4.17;;
450;SDS011;212;48.748;9.174;2022-07-29T06:35:51;4.30;;;4.00;;
450;SDS011;212;48.748;9.174;2022-07-29T06:38:18;3.43;;;3.23;;
450;SDS011;212;48.748;9.174;2022-07-29T06:40:45;3.87;;;3.67;;
450;SDS011;212;48.748;9.174;2022-07-29T06:43:27;4.07;;;3.87;;
450;SDS011;212;48.748;9.174;2022-07-29T06:45:58;3.60;;;3.20;;
450;SDS011;212;48.748;9.174;2022-07-29T06:48:26;3.83;;;3.63;;
450;SDS011;212;48.748;9.174;2022-07-29T06:50:53;3.83;;;3.67;;
450;SDS011;212;48.748;9.174;2022-07-29T06:53:19;6.40;;;4.73;;
450;SDS011;212;48.748;9.174;2022-07-29T06:55:46;4.10;;;3.90;;
450;SDS011;212;48.748;9.174;2022-07-29T06:58:13;4.43;;;4.13;;
450;SDS011;212;48.748;9.174;2022-07-29T07:00:41;4.23;;;3.97;;
450;SDS011;212;48.748;9.174;2022-07-29T07:03:09;4.10;;;3.90;;
450;SDS011;212;48.748;9.174;2022-07-29T07:05:35;3.73;;;3.60;;
450;SDS011;212;48.748;9.174;2022-07-29T07:08:03;3.63;;;3.43;;
450;SDS011;212;48.748;9.174;2022-07-29T07:10:30;4.30;;;3.90;;
450;SDS011;212;48.748;9.174;2022-07-29T07:12:56;3.87;;;3.57;;
450;SDS011;212;48.748;9.174;2022-07-29T07:15:23;4.57;;;4.27;;
450;SDS011;212;48.748;9.174;2022-07-29T07:17:50;3.60;;;3.40;;
450;SDS011;212;48.748;9.174;2022-07-29T07:20:19;4.80;;;3.90;;
450;SDS011;212;48.748;9.174;2022-07-29T07:22:45;4.53;;;3.87;;
450;SDS011;212;48.748;9.174;2022-07-29T07:25:12;5.23;;;4.00;;
450;SDS011;212;48.748;9.174;2022-07-29T07:27:39;4.17;;;3.93;;
450;SDS011;212;48.748;9.174;2022-07-29T07:30:06;5.17;;;4.20;;
450;SDS011;212;48.748;9.174;2022-07-29T07:32:33;5.30;;;4.40;;
450;SDS011;212;48.748;9.174;2022-07-29T07:35:00;3.60;;;3.40;;
450;SDS011;212;48.748;9.174;2022-07-29T07:37:29;3.97;;;3.77;;
450;SDS011;212;48.748;9.174;2022-07-29T07:39:56;5.37;;;4.00;;
450;SDS011;212;48.748;9.174;2022-07-29T07:42:23;6.17;;;4.27;;
450;SDS011;212;48.748;9.174;2022-07-29T07:44:50;4.60;;;4.30;;
450;SDS011;212;48.748;9.174;2022-07-29T07:47:16;4.50;;;4.20;;
450;SDS011;212;48.748;9.174;2022-07-29T07:49:44;4.40;;;4.10;;
450;SDS011;212;48.748;9.174;2022-07-29T07:52:11;3.93;;;3.73;;
450;SDS011;212;48.748;9.174;2022-07-29T07:54:40;4.30;;;3.97;;
450;SDS011;212;48.748;9.174;2022-07-29T07:57:07;4.40;;;4.03;;
450;SDS011;212;48.748;9.174;2022-07-29T07:59:34;4.83;;;4.53;;
450;SDS011;212;48.748;9.174;2022-07-29T08:02:01;6.43;;;4.23;;
450;SDS011;212;48.748;9.174;2022-07-29T08:04:27;4.10;;;3.90;;
450;SDS011;212;48.748;9.174;2022-07-29T08:06:54;4.30;;;4.00;;
450;SDS011;212;48.748;9.174;2022-07-29T08:09:22;4.83;;;3.60;;
450;SDS011;212;48.748;9.174;2022-07-29T08:11:51;3.70;;;3.50;;
450;SDS011;212;48.748;9.174;2022-07-29T08:14:18;4.37;;;4.07;;
450;SDS011;212;48.748;9.174;2022-07-29T08:16:45;4.07;;;3.90;;
450;SDS011;212;48.748;9.174;2022-07-29T08:19:11;5.53;;;4.67;;
450;SDS011;212;48.748;9.174;2022-07-29T08:21:38;3.80;;;3.60;;
450;SDS011;212;48.748;9.174;2022-07-29T08:24:05;4.43;;;4.13;;
450;SDS011;212;48.748;9.174;2022-07-29T08:26:51;4.47;;;4.17;;
450;SDS011;212;48.748;9.174;2022-07-29T08:29:18;3.80;;;3.60;;
450;SDS011;212;48.748;9.174;2022-07-29T08:31:44;5.57;;;3.73;;
450;SDS011;212;48.748;9.174;2022-07-29T08:34:11;4.80;;;4.07;;
450;SDS011;212;48.748;9.174;2022-07-29T08:36:38;8.87;;;7.40;;
450;SDS011;212;48.748;9.174;2022-07-29T08:39:04;3.17;;;2.97;;
450;SDS011;212;48.748;9.174;2022-07-29T08:41:31;4.30;;;4.00;;
450;SDS011;212;48.748;9.174;2022-07-29T08:43:59;3.93;;;3.73;;
450;SDS011;212;48.748;9.174;2022-07-29T08:46:26;3.83;;;3.50;;
450;SDS011;212;48.748;9.174;2022-07-29T08:48:52;3.93;;;3.80;;
450;SDS011;212;48.748;9.174;2022-07-29T08:51:21;4.20;;;3.80;;
450;SDS011;212;48.748;9.174;2022-07-29T08:53:49;4.37;;;4.07;;
450;SDS011;212;48.748;9.174;2022-07-29T08:56:16;3.67;;;3.50;;
450;SDS011;212;48.748;9.174;2022-07-29T08:58:44;3.93;;;3.73;;
450;SDS011;212;48.748;9.174;2022-07-29T09:01:14;5.17;;;4.00;;
450;SDS011;212;48.748;9.174;2022-07-29T09:03:43;3.70;;;3.30;;
450;SDS011;212;48.748;9.174;2022-07-29T09:06:12;6.80;;;3.90;;
450;SDS011;212;48.748;9.174;2022-07-29T09:08:40;5.93;;;4.10;;
450;SDS011;212;48.748;9.174;2022-07-29T09:11:07;5.87;;;3.57;;
450;SDS011;212;48.748;9.174;2022-07-29T09:13:35;3.63;;;3.50;;
450;SDS011;212;48.748;9.174;2022-07-29T09:16:02;4.27;;;3.97;;
450;SDS011;212;48.748;9.174;2022-07-29T09:18:34;3.97;;;3.80;;
450;SDS011;212;48.748;9.174;2022-07-29T09:21:02;5.13;;;4.83;;
450;SDS011;212;48.748;9.174;2022-07-29T09:24:04;3.67;;;3.47;;
450;SDS011;212;48.748;9.174;2022-07-29T09:26:33;5.90;;;5.57;;
450;SDS011;212;48.748;9.174;2022-07-29T09:29:07;4.30;;;4.00;;
450;SDS011;212;48.748;9.174;2022-07-29T09:31:36;4.37;;;4.07;;
450;SDS011;212;48.748;9.174;2022-07-29T09:34:06;3.80;;;3.60;;
450;SDS011;212;48.748;9.174;2022-07-29T09:36:40;5.10;;;3.80;;
450;SDS011;212;48.748;9.174;2022-07-29T09:39:07;4.10;;;3.90;;
450;SDS011;212;48.748;9.174;2022-07-29T09:41:44;4.40;;;3.67;;
450;SDS011;212;48.748;9.174;2022-07-29T09:44:12;4.40;;;4.10;;
450;SDS011;212;48.748;9.174;2022-07-29T09:46:39;3.67;;;3.50;;
450;SDS011;212;48.748;9.174;2022-07-29T09:49:09;4.10;;;3.87;;
450;SDS011;212;48.748;9.174;2022-07-29T09:51:39;4.53;;;4.23;;
450;SDS011;212;48.748;9.174;2022-07-29T09:54:22;4.80;;;4.40;;
450;SDS011;212;48.748;9.174;2022-07-29T09:56:49;4.70;;;4.23;;
450;SDS011;212;48.748;9.174;2022-07-29T09:59:16;4.70;;;4.40;;
450;SDS011;212;48.748;9.174;2022-07-29T10:01:43;5.03;;;4.73;;
450;SDS011;212;48.748;9.174;2022-07-29T10:04:11;5.50;;;5.20;;
450;SDS011;212;48.748;9.174;2022-07-29T10:06:46;4.73;;;4.43;;
450;SDS011;212;48.748;9.174;2022-07-29T10:09:22;5.27;;;4.87;;
450;SDS011;212;48.748;9.174;2022-07-29T10:12:02;5.10;;;4.80;;
450;SDS011;212;48.748;9.174;2022-07-29T10:14:34;6.37;;;5.23;;
450;SDS011;212;48.748;9.174;2022-07-29T10:17:02;5.77;;;5.47;;
450;SDS011;212;48.748;9.174;2022-07-29T10:19:31;7.40;;;5.03;;
450;SDS011;212;48.748;9.174;2022-07-29T10:21:59;5.80;;;5.50;;
450;SDS011;212;48.748;9.174;2022-07-29T10:24:28;5.33;;;5.03;;
450;SDS011;212;48.748;9.174;2022-07-29T10:26:57;4.77;;;4.37;;
450;SDS011;212;48.748;9.174;2022-07-29T10:29:24;5.30;;;5.00;;
450;SDS011;212;48.748;9.174;2022-07-29T10:31:53;5.97;;;5.47;;
450;SDS011;212;48.748;9.174;2022-07-29T10:34:36;5.97;;;5.67;;
450;SDS011;212;48.748;9.174;2022-07-29T10:37:19;5.57;;;5.27;;
450;SDS011;212;48.748;9.174;2022-07-29T10:39:53;5.87;;;5.57;;
450;SDS011;212;48.748;9.174;2022-07-29T10:42:27;6.97;;;6.50;;
450;SDS011;212;48.748;9.174;2022-07-29T10:44:55;6.87;;;6.47;;
450;SDS011;212;48.748;9.174;2022-07-29T10:47:23;7.63;;;7.23;;
450;SDS011;212;48.748;9.174;2022-07-29T10:49:58;8.87;;;8.40;;
450;SDS011;212;48.748;9.174;2022-07-29T10:55:31;22.10;;;12.30;;
450;SDS011;212;48.748;9.174;2022-07-29T10:58:14;12.60;;;10.87;;
450;SDS011;212;48.748;9.174;2022-07-29T11:00:42;12.77;;;12.07;;
450;SDS011;212;48.748;9.174;2022-07-29T11:03:08;7.83;;;7.43;;
450;SDS011;212;48.748;9.174;2022-07-29T11:05:52;11.47;;;8.57;;
450;SDS011;212;48.748;9.174;2022-07-29T11:08:21;10.13;;;9.63;;
450;SDS011;212;48.748;9.174;2022-07-29T11:10:51;11.57;;;10.97;;
450;SDS011;212;48.748;9.174;2022-07-29T11:13:44;12.80;;;12.10;;
450;SDS011;212;48.748;9.174;2022-07-29T11:16:12;13.77;;;11.80;;
450;SDS011;212;48.748;9.174;2022-07-29T11:21:42;12.43;;;11.80;;
450;SDS011;212;48.748;9.174;2022-07-29T11:24:12;13.43;;;12.70;;
450;SDS011;212;48.748;9.174;2022-07-29T11:26:39;13.17;;;12.47;;
450;SDS011;212;48.748;9.174;2022-07-29T11:29:14;10.80;;;10.20;;
450;SDS011;212;48.748;9.174;2022-07-29T11:31:45;10.63;;;10.03;;
450;SDS011;212;48.748;9.174;2022-07-29T11:34:18;10.17;;;9.67;;
450;SDS011;212;48.748;9.174;2022-07-29T11:39:45;11.90;;;11.10;;
450;SDS011;212;48.748;9.174;2022-07-29T11:45:05;10.20;;;9.70;;
450;SDS011;212;48.748;9.174;2022-07-29T11:47:34;9.53;;;9.03;;
450;SDS011;212;48.748;9.174;2022-07-29T11:50:03;8.43;;;7.97;;
450;SDS011;212;48.748;9.174;2022-07-29T11:52:34;8.10;;;7.70;;
450;SDS011;212;48.748;9.174;2022-07-29T11:55:08;8.00;;;7.60;;
450;SDS011;212;48.748;9.174;2022-07-29T11:57:35;6.83;;;6.43;;
450;SDS011;212;48.748;9.174;2022-07-29T12:00:03;7.33;;;6.93;;
450;SDS011;212;48.748;9.174;2022-07-29T12:02:39;7.97;;;7.57;;
450;SDS011;212;48.748;9.174;2022-07-29T12:05:07;7.70;;;7.20;;
450;SDS011;212;48.748;9.174;2022-07-29T12:07:37;7.27;;;6.83;;
450;SDS011;212;48.748;9.174;2022-07-29T12:10:05;7.23;;;6.83;;
450;SDS011;212;48.748;9.174;2022-07-29T12:12:33;7.20;;;6.80;;
450;SDS011;212;48.748;9.174;2022-07-29T12:15:10;5.87;;;5.60;;
450;SDS011;212;48.748;9.174;2022-07-29T12:17:38;7.53;;;7.13;;
450;SDS011;212;48.748;9.174;2022-07-29T12:20:05;5.73;;;5.43;;
450;SDS011;212;48.748;9.174;2022-07-29T12:22:33;7.10;;;5.27;;
450;SDS011;212;48.748;9.174;2022-07-29T12:25:05;5.80;;;5.10;;
450;SDS011;212;48.748;9.174;2022-07-29T12:27:33;5.57;;;5.20;;
450;SDS011;212;48.748;9.174;2022-07-29T12:30:01;8.83;;;4.20;;
450;SDS011;212;48.748;9.174;2022-07-29T12:32:31;5.37;;;5.07;;
450;SDS011;212;48.748;9.174;2022-07-29T12:34:58;5.20;;;4.90;;
450;SDS011;212;48.748;9.174;2022-07-29T12:37:26;5.70;;;5.40;;
450;SDS011;212;48.748;9.174;2022-07-29T12:39:52;5.43;;;5.13;;
450;SDS011;212;48.748;9.174;2022-07-29T12:42:21;5.63;;;5.33;;
450;SDS011;212;48.748;9.174;2022-07-29T12:44:48;5.50;;;5.20;;
450;SDS011;212;48.748;9.174;2022-07-29T12:47:16;7.03;;;6.63;;
450;SDS011;212;48.748;9.174;2022-07-29T12:49:44;6.50;;;6.10;;
450;SDS011;212;48.748;9.174;2022-07-29T12:52:24;5.83;;;5.47;;
450;SDS011;212;48.748;9.174;2022-07-29T12:54:51;6.80;;;6.40;;
450;SDS011;212;48.748;9.174;2022-07-29T12:57:18;6.60;;;6.20;;
450;SDS011;212;48.748;9.174;2022-07-29T12:59:58;6.10;;;5.80;;
450;SDS011;212;48.748;9.174;2022-07-29T13:02:33;6.43;;;6.03;;
450;SDS011;212;48.748;9.174;2022-07-29T13:05:01;12.67;;;8.17;;
450;SDS011;212;48.748;9.174;2022-07-29T13:07:29;7.40;;;6.43;;
450;SDS011;212;48.748;9.174;2022-07-29T13:10:09;7.63;;;6.67;;
450;SDS011;212;48.748;9.174;2022-07-29T13:12:39;6.80;;;6.40;;
450;SDS011;212;48.748;9.174;2022-07-29T13:15:12;8.50;;;6.60;;
450;SDS011;212;48.748;9.174;2022-07-29T13:17:41;7.60;;;7.20;;
450;SDS011;212;48.748;9.174;2022-07-29T13:20:09;8.27;;;7.87;;
450;SDS011;212;48.748;9.174;2022-07-29T13:22:39;9.83;;;7.60;;
450;SDS011;212;48.748;9.174;2022-07-29T13:25:07;8.33;;;7.90;;
450;SDS011;212;48.748;9.174;2022-07-29T13:27:36;7.33;;;6.93;;
450;SDS011;212;48.748;9.174;2022-07-29T13:30:07;8.67;;;8.13;;
450;SDS011;212;48.748;9.174;2022-07-29T13:32:35;8.20;;;7.80;;
450;SDS011;212;48.748;9.174;2022-07-29T13:35:03;8.60;;;8.07;;
450;SDS011;212;48.748;9.174;2022-07-29T13:37:32;9.07;;;8.57;;
450;SDS011;212;48.748;9.174;2022-07-29T13:39:59;8.90;;;8.40;;
450;SDS011;212;48.748;9.174;2022-07-29T13:42:27;9.57;;;9.07;;
450;SDS011;212;48.748;9.174;2022-07-29T13:44:54;9.70;;;9.20;;
450;SDS011;212;48.748;9.174;2022-07-29T13:47:22;8.80;;;8.30;;
450;SDS011;212;48.748;9.174;2022-07-29T13:49:50;9.30;;;8.80;;
450;SDS011;212;48.748;9.174;2022-07-29T13:52:18;9.97;;;9.47;;
450;SDS011;212;48.748;9.174;2022-07-29T13:54:45;8.97;;;8.47;;
450;SDS011;212;48.748;9.174;2022-07-29T13:57:12;8.10;;;7.70;;
450;SDS011;212;48.748;9.174;2022-07-29T13:59:39;8.90;;;8.40;;
450;SDS011;212;48.748;9.174;2022-07-29T14:02:07;7.60;;;7.20;;
450;SDS011;212;48.748;9.174;2022-07-29T14:04:36;7.10;;;6.70;;
450;SDS011;212;48.748;9.174;2022-07-29T14:07:03;9.10;;;8.60;;
450;SDS011;212;48.748;9.174;2022-07-29T14:09:30;8.73;;;8.23;;
450;SDS011;212;48.748;9.174;2022-07-29T14:11:56;9.50;;;9.00;;
450;SDS011;212;48.748;9.174;2022-07-29T14:14:23;8.87;;;8.37;;
450;SDS011;212;48.748;9.174;2022-07-29T14:16:50;10.30;;;9.80;;
450;SDS011;212;48.748;9.174;2022-07-29T14:19:16;8.10;;;7.70;;
450;SDS011;212;48.748;9.174;2022-07-29T14:21:44;9.77;;;9.27;;
450;SDS011;212;48.748;9.174;2022-07-29T14:24:11;8.63;;;8.13;;
450;SDS011;212;48.748;9.174;2022-07-29T14:26:38;8.37;;;7.93;;
450;SDS011;212;48.748;9.174;2022-07-29T14:29:04;8.53;;;8.03;;
450;SDS011;212;48.748;9.174;2022-07-29T14:31:32;7.90;;;7.50;;
450;SDS011;212;48.748;9.174;2022-07-29T14:33:58;8.80;;;8.30;;
450;SDS011;212;48.748;9.174;2022-07-29T14:36:25;8.10;;;7.70;;
450;SDS011;212;48.748;9.174;2022-07-29T14:38:53;8.10;;;7.70;;
450;SDS011;212;48.748;9.174;2022-07-29T14:41:20;8.20;;;7.80;;
450;SDS011;212;48.748;9.174;2022-07-29T14:43:47;8.00;;;7.60;;
450;SDS011;212;48.748;9.174;2022-07-29T14:46:13;8.73;;;8.23;;
450;SDS011;212;48.748;9.174;2022-07-29T14:48:40;9.80;;;9.30;;
450;SDS011;212;48.748;9.174;2022-07-29T14:51:07;9.20;;;8.70;;
450;SDS011;212;48.748;9.174;2022-07-29T14:53:33;7.60;;;7.20;;
450;SDS011;212;48.748;9.174;2022-07-29T14:56:01;9.60;;;9.10;;
450;SDS011;212;48.748;9.174;2022-07-29T14:58:28;9.30;;;8.80;;
450;SDS011;212;48.748;9.174;2022-07-29T15:00:55;10.40;;;9.90;;
450;SDS011;212;48.748;9.174;2022-07-29T15:03:22;11.17;;;10.57;;
450;SDS011;212;48.748;9.174;2022-07-29T15:05:49;10.40;;;9.90;;
450;SDS011;212;48.748;9.174;2022-07-29T15:08:16;11.13;;;10.30;;
450;SDS011;212;48.748;9.174;2022-07-29T15:10:43;10.67;;;10.07;;
450;SDS011;212;48.748;9.174;2022-07-29T15:13:11;11.77;;;11.17;;
450;SDS011;212;48.748;9.174;2022-07-29T15:15:38;11.30;;;10.70;;
450;SDS011;212;48.748;9.174;2022-07-29T15:18:06;9.70;;;9.20;;
450;SDS011;212;48.748;9.174;2022-07-29T15:20:34;12.47;;;11.87;;
450;SDS011;212;48.748;9.174;2022-07-29T15:23:00;10.87;;;10.27;;
450;SDS011;212;48.748;9.174;2022-07-29T15:25:27;11.20;;;10.60;;
450;SDS011;212;48.748;9.174;2022-07-29T15:27:54;11.47;;;10.87;;
450;SDS011;212;48.748;9.174;2022-07-29T15:30:22;11.43;;;10.83;;
450;SDS011;212;48.748;9.174;2022-07-29T15:32:49;11.23;;;10.63;;
450;SDS011;212;48.748;9.174;2022-07-29T15:35:16;11.70;;;11.10;;
450;SDS011;212;48.748;9.174;2022-07-29T15:37:42;10.53;;;9.97;;
450;SDS011;212;48.748;9.174;2022-07-29T15:40:10;12.20;;;11.60;;
450;SDS011;212;48.748;9.174;2022-07-29T15:42:37;10.43;;;9.73;;
450;SDS011;212;48.748;9.174;2022-07-29T15:45:04;11.43;;;10.83;;
450;SDS011;212;48.748;9.174;2022-07-29T15:47:32;10.90;;;10.30;;
450;SDS011;212;48.748;9.174;2022-07-29T15:50:01;11.30;;;10.70;;
450;SDS011;212;48.748;9.174;2022-07-29T15:52:27;10.10;;;9.60;;
450;SDS011;212;48.748;9.174;2022-07-29T15:54:54;9.93;;;9.43;;
450;SDS011;212;48.748;9.174;2022-07-29T15:57:22;10.63;;;10.07;;
450;SDS011;212;48.748;9.174;2022-07-29T15:59:49;13.00;;;10.00;;
450;SDS011;212;48.748;9.174;2022-07-29T16:02:16;11.10;;;10.50;;
450;SDS011;212;48.748;9.174;2022-07-29T16:04:44;11.03;;;10.43;;
450;SDS011;212;48.748;9.174;2022-07-29T16:07:11;10.67;;;10.10;;